Time,TemperatureF,DewpointF,PressureIn,WindDirection,WindDirectionDegrees,WindSpeedMPH,WindSpeedGustMPH,Humidity,HourlyPrecipIn,Conditions,Clouds,dailyrainin,SoftwareType,DateUTC
2013-01-10 00:00:00,27.8,22.7,29.42,SSE,156,1.0,1.6,80,0.00,,,0.35,proprietary,2013-01-10 05:00:00,
2013-01-10 00:01:00,27.7,22.6,29.42,SSE,155,0.6,1.3,80,0.00,,,0.35,proprietary,2013-01-10 05:01:00,
2013-01-10 00:05:00,27.5,22.8,29.42,SSE,155,0.8,1.5,82,0.00,,,0.00,proprietary,2013-01-10 05:05:00,
2013-01-10 00:08:00,27.4,22.8,29.43,North,0,0.0,0.0,82,0.00,,,0.00,proprietary,2013-01-10 05:08:00,
2013-01-10 00:13:00,27.2,22.8,29.43,SSE,155,0.4,1.2,83,0.00,,,0.00,proprietary,2013-01-10 05:13:00,
2013-01-10 00:18:00,27.1,22.8,29.43,North,0,0.0,0.0,83,0.00,,,0.00,proprietary,2013-01-10 05:18:00,
2013-01-10 00:23:00,27.0,22.9,29.43,North,0,0.0,0.0,84,0.00,,,0.00,proprietary,2013-01-10 05:23:00,
2013-01-10 00:28:00,26.8,22.8,29.44,SSE,164,0.3,1.2,84,0.00,,,0.00,proprietary,2013-01-10 05:28:00,
2013-01-10 00:33:00,26.8,23.0,29.44,North,0,0.0,0.0,85,0.00,,,0.00,proprietary,2013-01-10 05:33:00,
2013-01-10 00:38:00,26.5,22.7,29.45,North,0,0.0,0.0,85,0.00,,,0.00,proprietary,2013-01-10 05:38:00,
2013-01-10 00:44:00,26.5,23.0,29.45,North,0,0.0,0.0,86,0.00,,,0.00,proprietary,2013-01-10 05:44:00,
2013-01-10 00:49:00,26.3,22.7,29.45,North,0,0.0,0.0,86,0.00,,,0.00,proprietary,2013-01-10 05:49:00,
2013-01-10 00:54:00,26.0,22.5,29.46,North,0,0.0,0.0,86,0.00,,,0.00,proprietary,2013-01-10 05:54:00,
2013-01-10 00:59:00,25.8,22.2,29.46,SSE,164,0.3,1.1,86,0.00,,,0.00,proprietary,2013-01-10 05:59:00,
2013-01-10 01:04:00,25.1,21.7,29.46,SSE,163,0.2,1.5,86,0.00,,,0.00,proprietary,2013-01-10 06:04:00,
2013-01-10 01:10:00,24.9,21.7,29.46,North,0,0.0,0.0,87,0.00,,,0.00,proprietary,2013-01-10 06:10:00,
2013-01-10 01:16:00,24.8,21.6,29.47,North,0,0.0,0.0,87,0.00,,,0.00,proprietary,2013-01-10 06:16:00,
2013-01-10 01:21:00,24.9,22.0,29.47,North,0,0.0,0.0,88,0.00,,,0.00,proprietary,2013-01-10 06:21:00,
2013-01-10 01:26:00,25.0,22.0,29.47,North,0,0.0,0.0,88,0.00,,,0.00,proprietary,2013-01-10 06:26:00,
2013-01-10 01:31:00,24.6,21.6,29.47,North,0,0.0,0.0,88,0.00,,,0.00,proprietary,2013-01-10 06:31:00,
2013-01-10 01:36:00,24.5,21.7,29.48,North,0,0.0,0.0,88,0.00,,,0.00,proprietary,2013-01-10 06:36:00,
2013-01-10 01:42:00,25.4,22.9,29.48,North,0,0.0,0.0,89,0.00,,,0.00,proprietary,2013-01-10 06:42:00,
2013-01-10 01:47:00,25.0,22.2,29.48,South,188,0.3,1.2,88,0.00,,,0.00,proprietary,2013-01-10 06:47:00,
2013-01-10 01:53:00,24.8,22.1,29.49,North,0,0.0,0.0,89,0.00,,,0.00,proprietary,2013-01-10 06:53:00,
2013-01-10 01:58:00,24.9,22.3,29.49,North,0,0.0,0.0,89,0.00,,,0.00,proprietary,2013-01-10 06:58:00,
2013-01-10 02:04:00,24.3,21.6,29.49,North,0,0.0,0.0,89,0.00,,,0.00,proprietary,2013-01-10 07:04:00,
2013-01-10 02:09:00,24.0,21.4,29.50,North,0,0.0,0.0,89,0.00,,,0.00,proprietary,2013-01-10 07:09:00,
2013-01-10 02:14:00,24.4,21.9,29.50,North,0,0.0,0.0,90,0.00,,,0.00,proprietary,2013-01-10 07:14:00,
2013-01-10 02:19:00,24.5,22.2,29.50,North,0,0.0,0.0,90,0.00,,,0.00,proprietary,2013-01-10 07:19:00,
2013-01-10 02:24:00,25.2,23.0,29.50,North,0,0.0,0.0,91,0.00,,,0.00,proprietary,2013-01-10 07:24:00,
2013-01-10 02:29:00,24.9,22.4,29.49,South,187,1.1,1.2,90,0.00,,,0.00,proprietary,2013-01-10 07:29:00,
2013-01-10 02:34:00,25.0,22.7,29.49,North,0,0.0,0.0,90,0.00,,,0.00,proprietary,2013-01-10 07:34:00,
2013-01-10 02:39:00,24.3,21.6,29.50,South,182,1.1,1.3,89,0.00,,,0.00,proprietary,2013-01-10 07:39:00,
2013-01-10 02:44:00,23.8,21.3,29.50,South,181,0.9,1.2,90,0.00,,,0.00,proprietary,2013-01-10 07:44:00,
2013-01-10 02:49:00,23.6,21.3,29.50,North,0,0.0,0.0,90,0.00,,,0.00,proprietary,2013-01-10 07:49:00,
2013-01-10 02:54:00,23.5,21.4,29.50,North,0,0.0,0.0,91,0.00,,,0.00,proprietary,2013-01-10 07:54:00,
2013-01-10 02:59:00,23.4,21.2,29.50,North,0,0.0,0.0,91,0.00,,,0.00,proprietary,2013-01-10 07:59:00,
2013-01-10 03:04:00,23.2,21.1,29.50,North,0,0.0,0.0,91,0.00,,,0.00,proprietary,2013-01-10 08:04:00,
2013-01-10 03:09:00,22.9,20.6,29.50,North,0,0.0,0.0,90,0.00,,,0.00,proprietary,2013-01-10 08:09:00,
2013-01-10 03:15:00,22.3,20.0,29.50,North,0,0.0,0.0,90,0.00,,,0.00,proprietary,2013-01-10 08:15:00,
2013-01-10 03:20:00,22.6,20.5,29.50,North,0,0.0,0.0,91,0.00,,,0.00,proprietary,2013-01-10 08:20:00,
2013-01-10 03:25:00,22.9,20.9,29.50,North,0,0.0,0.0,91,0.00,,,0.00,proprietary,2013-01-10 08:25:00,
2013-01-10 03:30:00,22.8,20.7,29.50,North,0,0.0,0.0,91,0.00,,,0.00,proprietary,2013-01-10 08:30:00,
2013-01-10 03:35:00,22.7,20.7,29.50,North,0,0.0,0.0,91,0.00,,,0.00,proprietary,2013-01-10 08:35:00,
2013-01-10 03:40:00,22.7,20.6,29.50,South,182,0.3,1.3,91,0.00,,,0.00,proprietary,2013-01-10 08:40:00,
2013-01-10 03:46:00,22.1,20.1,29.50,North,0,0.0,0.0,91,0.00,,,0.00,proprietary,2013-01-10 08:46:00,
2013-01-10 03:51:00,22.0,19.9,29.50,North,0,0.0,0.0,91,0.00,,,0.00,proprietary,2013-01-10 08:51:00,
2013-01-10 03:56:00,21.7,19.6,29.50,North,0,0.0,0.0,91,0.00,,,0.00,proprietary,2013-01-10 08:56:00,
2013-01-10 04:01:00,21.7,19.8,29.50,North,0,0.0,0.0,92,0.00,,,0.00,proprietary,2013-01-10 09:01:00,
2013-01-10 04:06:00,21.5,19.5,29.50,North,0,0.0,0.0,91,0.00,,,0.00,proprietary,2013-01-10 09:06:00,
2013-01-10 04:12:00,21.6,19.7,29.50,North,0,0.0,0.0,92,0.00,,,0.00,proprietary,2013-01-10 09:12:00,
2013-01-10 04:17:00,21.7,19.9,29.50,North,0,0.0,0.0,92,0.00,,,0.00,proprietary,2013-01-10 09:17:00,
2013-01-10 04:22:00,21.6,19.8,29.50,North,0,0.0,0.0,92,0.00,,,0.00,proprietary,2013-01-10 09:22:00,
2013-01-10 04:28:00,21.3,19.4,29.50,North,0,0.0,0.0,92,0.00,,,0.00,proprietary,2013-01-10 09:28:00,
2013-01-10 04:33:00,21.3,19.5,29.49,North,0,0.0,0.0,92,0.00,,,0.00,proprietary,2013-01-10 09:33:00,
2013-01-10 04:39:00,21.0,19.0,29.50,North,0,0.0,0.0,91,0.00,,,0.00,proprietary,2013-01-10 09:39:00,
2013-01-10 04:44:00,21.1,19.4,29.49,North,0,0.0,0.0,92,0.00,,,0.00,proprietary,2013-01-10 09:44:00,
2013-01-10 04:50:00,20.9,19.1,29.49,North,0,0.0,0.0,92,0.00,,,0.00,proprietary,2013-01-10 09:50:00,
2013-01-10 04:56:00,20.7,19.0,29.49,North,0,0.0,0.0,92,0.00,,,0.00,proprietary,2013-01-10 09:56:00,
2013-01-10 05:01:00,20.6,18.9,29.49,North,0,0.0,0.0,92,0.00,,,0.00,proprietary,2013-01-10 10:01:00,
2013-01-10 05:06:00,20.4,18.5,29.49,North,0,0.0,0.0,92,0.00,,,0.00,proprietary,2013-01-10 10:06:00,
2013-01-10 05:11:00,20.1,18.2,29.49,North,0,0.0,0.0,92,0.00,,,0.00,proprietary,2013-01-10 10:11:00,
2013-01-10 05:16:00,19.7,17.9,29.49,North,0,0.0,0.0,92,0.00,,,0.00,proprietary,2013-01-10 10:16:00,
2013-01-10 05:21:00,19.5,17.8,29.49,North,0,0.0,0.0,92,0.00,,,0.00,proprietary,2013-01-10 10:21:00,
2013-01-10 05:22:00,19.6,17.9,29.49,North,0,0.0,0.0,92,0.00,,,0.00,proprietary,2013-01-10 10:22:00,
2013-01-10 05:23:00,19.7,18.0,29.49,South,181,0.1,1.2,92,0.00,,,0.00,proprietary,2013-01-10 10:23:00,
2013-01-10 05:24:00,19.8,18.1,29.49,South,181,0.6,1.2,93,0.00,,,0.00,proprietary,2013-01-10 10:24:00,
2013-01-10 05:25:00,19.8,18.1,29.49,South,181,1.2,1.3,93,0.00,,,0.00,proprietary,2013-01-10 10:25:00,
2013-01-10 05:26:00,19.6,17.8,29.49,North,0,0.0,0.0,92,0.00,,,0.00,proprietary,2013-01-10 10:26:00,
2013-01-10 05:27:00,19.5,17.7,29.49,SSE,158,1.5,1.7,92,0.00,,,0.00,proprietary,2013-01-10 10:27:00,
2013-01-10 05:37:00,19.4,17.6,29.49,SSE,158,1.1,1.4,92,0.00,,,0.00,proprietary,2013-01-10 10:37:00,
2013-01-10 05:43:00,19.5,17.9,29.50,SSE,158,0.2,1.1,93,0.00,,,0.00,proprietary,2013-01-10 10:43:00,
2013-01-10 05:48:00,19.7,18.1,29.50,North,0,0.0,0.0,93,0.00,,,0.00,proprietary,2013-01-10 10:48:00,
2013-01-10 05:53:00,19.9,18.3,29.50,North,0,0.0,0.0,93,0.00,,,0.00,proprietary,2013-01-10 10:53:00,
2013-01-10 05:58:00,20.0,18.3,29.50,North,0,0.0,0.0,93,0.00,,,0.00,proprietary,2013-01-10 10:58:00,
2013-01-10 06:03:00,19.9,18.3,29.50,North,0,0.0,0.0,93,0.00,,,0.00,proprietary,2013-01-10 11:03:00,
2013-01-10 06:08:00,19.7,18.0,29.49,North,0,0.0,0.0,92,0.00,,,0.00,proprietary,2013-01-10 11:08:00,
2013-01-10 06:13:00,19.8,18.1,29.50,North,0,0.0,0.0,93,0.00,,,0.00,proprietary,2013-01-10 11:13:00,
2013-01-10 06:18:00,19.9,18.3,29.50,North,0,0.0,0.0,93,0.00,,,0.00,proprietary,2013-01-10 11:18:00,
2013-01-10 06:23:00,19.8,18.2,29.50,North,0,0.0,0.0,93,0.00,,,0.00,proprietary,2013-01-10 11:23:00,
2013-01-10 06:28:00,19.6,17.9,29.50,North,0,0.0,0.0,93,0.00,,,0.00,proprietary,2013-01-10 11:28:00,
2013-01-10 06:33:00,19.5,17.8,29.50,North,0,0.0,0.0,93,0.00,,,0.00,proprietary,2013-01-10 11:33:00,
2013-01-10 06:38:00,19.0,17.2,29.50,North,0,0.0,0.0,92,0.00,,,0.00,proprietary,2013-01-10 11:38:00,
2013-01-10 06:43:00,18.7,17.0,29.50,North,0,0.0,0.0,92,0.00,,,0.00,proprietary,2013-01-10 11:43:00,
2013-01-10 06:48:00,18.7,17.0,29.50,North,0,0.0,0.0,92,0.00,,,0.00,proprietary,2013-01-10 11:48:00,
2013-01-10 06:53:00,18.6,16.9,29.50,North,0,0.0,0.0,92,0.00,,,0.00,proprietary,2013-01-10 11:53:00,
2013-01-10 06:58:00,18.6,16.9,29.51,North,0,0.0,0.0,92,0.00,,,0.00,proprietary,2013-01-10 11:58:00,
2013-01-10 07:03:00,18.6,16.9,29.51,North,0,0.0,0.0,92,0.00,,,0.00,proprietary,2013-01-10 12:03:00,
2013-01-10 07:08:00,18.6,16.9,29.51,North,0,0.0,0.0,92,0.00,,,0.00,proprietary,2013-01-10 12:08:00,
2013-01-10 07:13:00,18.4,16.7,29.51,North,0,0.0,0.0,92,0.00,,,0.00,proprietary,2013-01-10 12:13:00,
2013-01-10 07:18:00,18.4,16.6,29.51,North,0,0.0,0.0,92,0.00,,,0.00,proprietary,2013-01-10 12:18:00,
2013-01-10 07:23:00,18.3,16.5,29.51,North,0,0.0,0.0,92,0.00,,,0.00,proprietary,2013-01-10 12:23:00,
2013-01-10 07:28:00,18.2,16.5,29.51,North,0,0.0,0.0,92,0.00,,,0.00,proprietary,2013-01-10 12:28:00,
2013-01-10 07:33:00,18.5,16.8,29.51,North,0,0.0,0.0,93,0.00,,,0.00,proprietary,2013-01-10 12:33:00,
2013-01-10 07:38:00,18.5,16.8,29.51,SSE,158,0.5,1.2,92,0.00,,,0.00,proprietary,2013-01-10 12:38:00,
2013-01-10 07:44:00,18.3,16.6,29.51,North,0,0.0,0.0,92,0.00,,,0.00,proprietary,2013-01-10 12:44:00,
2013-01-10 07:49:00,18.4,16.7,29.51,North,0,0.0,0.0,92,0.00,,,0.00,proprietary,2013-01-10 12:49:00,
2013-01-10 07:54:00,18.3,16.6,29.52,North,0,0.0,0.0,92,0.00,,,0.00,proprietary,2013-01-10 12:54:00,
2013-01-10 07:59:00,18.2,16.5,29.52,North,0,0.0,0.0,92,0.00,,,0.00,proprietary,2013-01-10 12:59:00,
2013-01-10 08:04:00,18.5,16.8,29.52,North,0,0.0,0.0,92,0.00,,,0.00,proprietary,2013-01-10 13:04:00,
2013-01-10 08:09:00,18.5,16.8,29.52,SSE,158,1.4,1.5,92,0.00,,,0.00,proprietary,2013-01-10 13:09:00,
2013-01-10 08:14:00,18.5,16.8,29.52,North,0,0.0,0.0,92,0.00,,,0.00,proprietary,2013-01-10 13:14:00,
2013-01-10 08:19:00,18.8,17.1,29.52,North,0,0.0,0.0,92,0.00,,,0.00,proprietary,2013-01-10 13:19:00,
2013-01-10 08:24:00,18.8,16.9,29.52,North,0,0.0,0.0,92,0.00,,,0.00,proprietary,2013-01-10 13:24:00,
2013-01-10 08:29:00,18.2,16.4,29.52,SSE,161,0.2,1.2,92,0.00,,,0.00,proprietary,2013-01-10 13:29:00,
2013-01-10 08:34:00,18.4,16.6,29.53,North,0,0.0,0.0,92,0.00,,,0.00,proprietary,2013-01-10 13:34:00,
2013-01-10 08:39:00,18.6,16.8,29.53,North,0,0.0,0.0,92,0.00,,,0.00,proprietary,2013-01-10 13:39:00,
2013-01-10 08:44:00,19.0,17.2,29.53,North,0,0.0,0.0,92,0.00,,,0.00,proprietary,2013-01-10 13:44:00,
2013-01-10 08:49:00,19.3,17.6,29.53,North,0,0.0,0.0,92,0.00,,,0.00,proprietary,2013-01-10 13:49:00,
2013-01-10 08:54:00,19.7,18.0,29.53,North,0,0.0,0.0,92,0.00,,,0.00,proprietary,2013-01-10 13:54:00,
2013-01-10 08:59:00,20.2,18.5,29.53,North,0,0.0,0.0,92,0.00,,,0.00,proprietary,2013-01-10 13:59:00,
2013-01-10 09:04:00,20.8,19.1,29.53,North,0,0.0,0.0,93,0.00,,,0.00,proprietary,2013-01-10 14:04:00,
2013-01-10 09:09:00,21.4,19.7,29.53,North,0,0.0,0.0,93,0.00,,,0.00,proprietary,2013-01-10 14:09:00,
2013-01-10 09:14:00,22.1,20.4,29.53,North,0,0.0,0.0,93,0.00,,,0.00,proprietary,2013-01-10 14:14:00,
2013-01-10 09:19:00,22.8,21.2,29.53,North,0,0.0,0.0,93,0.00,,,0.00,proprietary,2013-01-10 14:19:00,
2013-01-10 09:24:00,23.4,21.7,29.53,SSE,167,0.9,1.4,93,0.00,,,0.00,proprietary,2013-01-10 14:24:00,
2013-01-10 09:29:00,23.9,22.3,29.53,North,0,0.0,0.0,93,0.00,,,0.00,proprietary,2013-01-10 14:29:00,
2013-01-10 09:34:00,24.7,23.1,29.53,North,0,0.0,0.0,93,0.00,,,0.00,proprietary,2013-01-10 14:34:00,
2013-01-10 09:39:00,25.1,23.3,29.53,North,0,0.0,0.0,92,0.00,,,0.00,proprietary,2013-01-10 14:39:00,
2013-01-10 09:44:00,25.4,23.5,29.53,SSE,167,0.1,1.1,92,0.00,,,0.00,proprietary,2013-01-10 14:44:00,
2013-01-10 09:50:00,26.2,24.4,29.54,North,0,0.0,0.0,92,0.00,,,0.00,proprietary,2013-01-10 14:50:00,
2013-01-10 09:55:00,26.6,24.7,29.54,SSE,167,1.3,1.5,92,0.00,,,0.00,proprietary,2013-01-10 14:55:00,
2013-01-10 10:00:00,27.1,25.2,29.54,SSE,168,0.3,1.2,92,0.00,,,0.00,proprietary,2013-01-10 15:00:00,
2013-01-10 10:05:00,28.1,26.2,29.53,North,0,0.0,0.0,92,0.00,,,0.00,proprietary,2013-01-10 15:05:00,
2013-01-10 10:10:00,28.4,26.5,29.54,North,0,0.0,0.0,92,0.00,,,0.00,proprietary,2013-01-10 15:10:00,
2013-01-10 10:15:00,29.1,26.8,29.53,North,0,0.0,0.0,90,0.00,,,0.00,proprietary,2013-01-10 15:15:00,
2013-01-10 10:20:00,29.6,26.8,29.53,NE,51,2.0,2.6,89,0.00,,,0.00,proprietary,2013-01-10 15:20:00,
2013-01-10 10:25:00,30.1,26.9,29.53,NE,52,1.5,2.0,87,0.00,,,0.00,proprietary,2013-01-10 15:25:00,
2013-01-10 10:30:00,30.6,27.1,29.53,ENE,58,2.7,3.9,86,0.00,,,0.00,proprietary,2013-01-10 15:30:00,
2013-01-10 10:35:00,30.9,26.6,29.52,ENE,78,2.1,3.1,84,0.00,,,0.00,proprietary,2013-01-10 15:35:00,
2013-01-10 10:40:00,31.5,27.0,29.53,ENE,59,1.9,2.6,83,0.00,,,0.00,proprietary,2013-01-10 15:40:00,
2013-01-10 10:45:00,32.4,27.4,29.52,East,80,1.8,2.6,81,0.00,,,0.00,proprietary,2013-01-10 15:45:00,
2013-01-10 10:50:00,32.8,27.0,29.52,ENE,61,2.5,2.8,78,0.00,,,0.00,proprietary,2013-01-10 15:50:00,
2013-01-10 10:55:00,33.2,27.1,29.52,ENE,75,2.0,3.5,77,0.00,,,0.00,proprietary,2013-01-10 15:55:00,
2013-01-10 11:00:00,33.6,27.0,29.52,East,81,2.5,3.5,76,0.00,,,0.00,proprietary,2013-01-10 16:00:00,
2013-01-10 11:06:00,34.3,27.1,29.52,East,101,2.5,3.7,74,0.00,,,0.00,proprietary,2013-01-10 16:06:00,
2013-01-10 11:11:00,34.3,27.0,29.51,East,93,3.3,4.5,74,0.00,,,0.00,proprietary,2013-01-10 16:11:00,
2013-01-10 11:16:00,34.6,27.2,29.51,ESE,103,4.3,5.8,74,0.00,,,0.00,proprietary,2013-01-10 16:16:00,
2013-01-10 11:21:00,35.1,27.4,29.51,East,100,3.0,4.7,73,0.00,,,0.00,proprietary,2013-01-10 16:21:00,
2013-01-10 11:26:00,35.5,26.7,29.51,ESE,106,1.9,3.7,70,0.00,,,0.00,proprietary,2013-01-10 16:26:00,
2013-01-10 11:31:00,36.0,27.0,29.51,SE,137,2.4,3.3,69,0.00,,,0.00,proprietary,2013-01-10 16:31:00,
2013-01-10 11:36:00,36.7,27.6,29.50,SE,139,3.6,5.0,69,0.00,,,0.00,proprietary,2013-01-10 16:36:00,
2013-01-10 11:41:00,37.4,27.0,29.50,SE,139,5.6,7.8,65,0.00,,,0.00,proprietary,2013-01-10 16:41:00,
2013-01-10 11:46:00,38.3,26.1,29.50,ESE,119,4.2,6.7,61,0.00,,,0.00,proprietary,2013-01-10 16:46:00,
2013-01-10 11:51:00,38.2,26.0,29.49,SE,134,4.0,6.7,60,0.00,,,0.00,proprietary,2013-01-10 16:51:00,
2013-01-10 11:56:00,38.5,26.3,29.49,SE,132,6.9,9.4,61,0.00,,,0.00,proprietary,2013-01-10 16:56:00,
2013-01-10 12:01:00,38.3,25.5,29.48,ESE,112,4.3,6.7,59,0.01,,,0.01,proprietary,2013-01-10 17:01:00,
2013-01-10 12:06:00,37.8,25.5,29.48,SE,138,4.9,6.4,60,0.01,,,0.01,proprietary,2013-01-10 17:06:00,
2013-01-10 12:11:00,38.1,26.2,29.48,SE,137,7.4,9.6,61,0.01,,,0.01,proprietary,2013-01-10 17:11:00,
2013-01-10 12:16:00,38.1,25.9,29.48,ESE,116,5.4,7.2,61,0.01,,,0.01,proprietary,2013-01-10 17:16:00,
2013-01-10 12:21:00,38.1,26.0,29.47,SE,133,3.2,4.1,61,0.01,,,0.01,proprietary,2013-01-10 17:21:00,
2013-01-10 12:26:00,38.1,26.3,29.47,SE,126,4.2,5.9,62,0.01,,,0.01,proprietary,2013-01-10 17:26:00,
2013-01-10 12:31:00,38.4,26.4,29.47,SSE,147,8.3,11.0,61,0.01,,,0.01,proprietary,2013-01-10 17:31:00,
2013-01-10 12:36:00,39.0,26.5,29.46,SE,139,6.9,9.3,60,0.01,,,0.01,proprietary,2013-01-10 17:36:00,
2013-01-10 12:41:00,39.5,26.3,29.46,SSE,148,7.8,10.5,58,0.01,,,0.01,proprietary,2013-01-10 17:41:00,
2013-01-10 12:46:00,39.0,26.1,29.46,SE,143,6.4,7.9,59,0.01,,,0.01,proprietary,2013-01-10 17:46:00,
2013-01-10 12:51:00,38.5,26.0,29.46,SE,124,4.2,6.2,60,0.01,,,0.01,proprietary,2013-01-10 17:51:00,
2013-01-10 12:56:00,38.1,26.0,29.45,SE,142,6.3,7.3,61,0.01,,,0.01,proprietary,2013-01-10 17:56:00,
2013-01-10 13:01:00,37.7,25.6,29.45,SE,140,6.8,9.6,61,0.00,,,0.01,proprietary,2013-01-10 18:01:00,
2013-01-10 13:06:00,37.5,25.5,29.45,SE,146,4.4,5.2,61,0.00,,,0.01,proprietary,2013-01-10 18:06:00,
2013-01-10 13:11:00,37.3,25.5,29.45,SE,130,3.7,5.4,61,0.00,,,0.01,proprietary,2013-01-10 18:11:00,
2013-01-10 13:16:00,37.1,25.9,29.45,SE,142,7.5,9.4,63,0.00,,,0.01,proprietary,2013-01-10 18:16:00,
2013-01-10 13:21:00,37.0,26.1,29.45,SE,139,6.8,8.5,64,0.00,,,0.01,proprietary,2013-01-10 18:21:00,
2013-01-10 13:26:00,37.1,26.4,29.44,SE,145,4.6,5.6,64,0.00,,,0.01,proprietary,2013-01-10 18:26:00,
2013-01-10 13:31:00,37.5,26.4,29.44,SSE,154,5.4,6.7,63,0.00,,,0.01,proprietary,2013-01-10 18:31:00,
2013-01-10 13:36:00,37.5,26.6,29.44,SE,138,5.1,6.7,64,0.00,,,0.01,proprietary,2013-01-10 18:36:00,
2013-01-10 13:41:00,37.5,26.5,29.43,SE,130,6.3,8.3,64,0.00,,,0.01,proprietary,2013-01-10 18:41:00,
2013-01-10 13:46:00,37.7,26.9,29.43,SE,137,8.2,10.1,64,0.00,,,0.01,proprietary,2013-01-10 18:46:00,
2013-01-10 13:51:00,37.4,26.5,29.43,SE,136,5.0,8.6,64,0.00,,,0.01,proprietary,2013-01-10 18:51:00,
2013-01-10 13:56:00,37.5,27.0,29.43,SE,130,5.0,6.5,65,0.00,,,0.01,proprietary,2013-01-10 18:56:00,
2013-01-10 14:01:00,37.6,26.6,29.42,SE,135,7.2,11.4,64,0.00,,,0.01,proprietary,2013-01-10 19:01:00,
2013-01-10 14:06:00,37.4,26.9,29.42,SE,130,5.5,9.0,65,0.00,,,0.01,proprietary,2013-01-10 19:06:00,
2013-01-10 14:11:00,37.4,26.8,29.42,ESE,123,5.2,7.1,65,0.00,,,0.01,proprietary,2013-01-10 19:11:00,
2013-01-10 14:16:00,37.5,27.0,29.42,SE,130,4.6,8.5,65,0.00,,,0.01,proprietary,2013-01-10 19:16:00,
2013-01-10 14:21:00,37.4,27.2,29.42,SE,140,6.7,8.3,66,0.00,,,0.01,proprietary,2013-01-10 19:21:00,
2013-01-10 14:26:00,37.7,27.2,29.41,SE,133,7.1,11.2,65,0.00,,,0.01,proprietary,2013-01-10 19:26:00,
2013-01-10 14:31:00,37.6,27.0,29.41,SE,125,4.3,6.9,65,0.00,,,0.01,proprietary,2013-01-10 19:31:00,
2013-01-10 14:36:00,37.5,27.1,29.41,ESE,106,5.3,6.6,65,0.00,,,0.01,proprietary,2013-01-10 19:36:00,
2013-01-10 14:41:00,37.2,27.3,29.41,ESE,108,3.6,4.6,67,0.00,,,0.01,proprietary,2013-01-10 19:41:00,
2013-01-10 14:46:00,37.0,27.0,29.41,SE,132,3.7,6.1,66,0.00,,,0.01,proprietary,2013-01-10 19:46:00,
2013-01-10 14:51:00,37.0,26.4,29.40,SE,126,5.4,8.5,65,0.00,,,0.01,proprietary,2013-01-10 19:51:00,
2013-01-10 14:56:00,36.9,26.3,29.40,SE,127,6.5,8.0,64,0.00,,,0.01,proprietary,2013-01-10 19:56:00,
2013-01-10 15:01:00,36.9,26.4,29.40,SE,145,7.8,10.0,65,0.00,,,0.01,proprietary,2013-01-10 20:01:00,
2013-01-10 15:06:00,36.8,26.4,29.40,SE,135,5.2,8.0,65,0.00,,,0.01,proprietary,2013-01-10 20:06:00,
2013-01-10 15:11:00,36.8,26.2,29.40,SE,133,7.1,9.9,65,0.00,,,0.01,proprietary,2013-01-10 20:11:00,
2013-01-10 15:16:00,36.7,26.3,29.39,SE,128,4.0,5.4,65,0.00,,,0.01,proprietary,2013-01-10 20:16:00,
2013-01-10 15:21:00,36.9,26.8,29.39,SE,133,8.9,11.5,66,0.00,,,0.01,proprietary,2013-01-10 20:21:00,
2013-01-10 15:26:00,36.8,26.4,29.39,SE,129,4.7,5.9,65,0.00,,,0.01,proprietary,2013-01-10 20:26:00,
2013-01-10 15:31:00,36.8,26.6,29.39,SE,142,5.1,7.1,66,0.00,,,0.01,proprietary,2013-01-10 20:31:00,
2013-01-10 15:36:00,36.7,26.9,29.39,SE,127,6.8,8.3,67,0.00,,,0.01,proprietary,2013-01-10 20:36:00,
2013-01-10 15:41:00,36.6,26.8,29.39,SE,132,3.2,4.6,67,0.00,,,0.01,proprietary,2013-01-10 20:41:00,
2013-01-10 15:46:00,36.5,26.9,29.39,SE,127,5.3,7.7,67,0.00,,,0.01,proprietary,2013-01-10 20:46:00,
2013-01-10 15:51:00,36.5,26.9,29.39,SE,135,4.3,6.6,68,0.00,,,0.01,proprietary,2013-01-10 20:51:00,
2013-01-10 15:56:00,36.4,26.9,29.39,SE,134,3.9,5.5,68,0.00,,,0.01,proprietary,2013-01-10 20:56:00,
2013-01-10 16:01:00,36.3,27.1,29.38,SE,136,5.6,6.6,68,0.00,,,0.01,proprietary,2013-01-10 21:01:00,
2013-01-10 16:06:00,36.4,27.1,29.39,East,100,3.7,6.4,68,0.00,,,0.01,proprietary,2013-01-10 21:06:00,
2013-01-10 16:11:00,36.4,27.1,29.38,East,100,4.3,7.7,68,0.00,,,0.01,proprietary,2013-01-10 21:11:00,
2013-01-10 16:16:00,36.3,27.1,29.38,SE,132,4.1,5.8,68,0.00,,,0.01,proprietary,2013-01-10 21:16:00,
2013-01-10 16:22:00,36.3,27.3,29.38,SE,138,4.9,6.7,69,0.00,,,0.01,proprietary,2013-01-10 21:22:00,
2013-01-10 16:27:00,36.3,27.4,29.38,ESE,121,3.7,5.3,69,0.00,,,0.01,proprietary,2013-01-10 21:27:00,
2013-01-10 16:32:00,36.2,27.5,29.37,ESE,115,4.8,8.4,70,0.00,,,0.01,proprietary,2013-01-10 21:32:00,
2013-01-10 16:37:00,36.1,27.5,29.37,SE,131,3.3,5.1,70,0.00,,,0.01,proprietary,2013-01-10 21:37:00,
2013-01-10 16:42:00,36.0,27.6,29.37,ESE,122,3.0,4.3,71,0.00,,,0.01,proprietary,2013-01-10 21:42:00,
2013-01-10 16:47:00,36.0,27.7,29.37,SE,135,4.1,8.8,71,0.00,,,0.01,proprietary,2013-01-10 21:47:00,
2013-01-10 16:52:00,35.9,27.8,29.37,ESE,122,4.8,7.0,72,0.00,,,0.01,proprietary,2013-01-10 21:52:00,
2013-01-10 16:57:00,35.9,27.9,29.36,SE,125,3.0,5.5,72,0.00,,,0.01,proprietary,2013-01-10 21:57:00,
2013-01-10 17:02:00,35.8,28.0,29.36,SE,124,3.8,6.4,72,0.00,,,0.01,proprietary,2013-01-10 22:02:00,
2013-01-10 17:07:00,35.8,28.1,29.36,East,92,4.6,6.9,73,0.00,,,0.01,proprietary,2013-01-10 22:07:00,
2013-01-10 17:12:00,35.7,28.2,29.35,East,79,2.8,4.9,73,0.00,,,0.01,proprietary,2013-01-10 22:12:00,
2013-01-10 17:17:00,35.6,28.2,29.35,East,92,2.1,4.9,74,0.00,,,0.01,proprietary,2013-01-10 22:17:00,
2013-01-10 17:22:00,35.5,28.2,29.35,ESE,112,2.8,3.9,74,0.00,,,0.01,proprietary,2013-01-10 22:22:00,
2013-01-10 17:27:00,35.5,28.1,29.35,ESE,120,6.8,10.6,74,0.00,,,0.01,proprietary,2013-01-10 22:27:00,
2013-01-10 17:32:00,35.4,28.0,29.35,SE,126,4.4,6.8,74,0.00,,,0.01,proprietary,2013-01-10 22:32:00,
2013-01-10 17:38:00,35.3,28.1,29.34,ESE,102,4.9,7.6,74,0.00,,,0.01,proprietary,2013-01-10 22:38:00,
2013-01-10 17:43:00,35.3,28.1,29.34,SE,128,3.7,5.2,74,0.00,,,0.01,proprietary,2013-01-10 22:43:00,
2013-01-10 17:48:00,35.2,28.1,29.34,East,92,1.8,4.0,74,0.00,,,0.01,proprietary,2013-01-10 22:48:00,
2013-01-10 17:53:00,35.1,28.2,29.34,East,92,3.8,5.1,75,0.00,,,0.01,proprietary,2013-01-10 22:53:00,
2013-01-10 17:58:00,35.1,28.4,29.34,East,93,3.5,6.6,76,0.00,,,0.01,proprietary,2013-01-10 22:58:00,
2013-01-10 18:03:00,35.0,28.3,29.34,ESE,111,3.0,6.7,76,0.00,,,0.01,proprietary,2013-01-10 23:03:00,
2013-01-10 18:08:00,34.9,28.3,29.33,ESE,103,3.0,5.9,76,0.00,,,0.01,proprietary,2013-01-10 23:08:00,
2013-01-10 18:13:00,34.9,28.3,29.33,SE,129,4.4,6.0,76,0.00,,,0.01,proprietary,2013-01-10 23:13:00,
2013-01-10 18:18:00,34.8,28.2,29.33,SE,124,1.7,2.7,76,0.00,,,0.01,proprietary,2013-01-10 23:18:00,
2013-01-10 18:23:00,34.8,28.2,29.33,ESE,107,3.7,6.1,76,0.00,,,0.01,proprietary,2013-01-10 23:23:00,
2013-01-10 18:28:00,34.8,28.1,29.33,ESE,105,4.1,6.7,76,0.00,,,0.01,proprietary,2013-01-10 23:28:00,
2013-01-10 18:33:00,34.7,28.1,29.33,ESE,109,3.1,4.1,76,0.00,,,0.01,proprietary,2013-01-10 23:33:00,
2013-01-10 18:39:00,34.7,28.1,29.32,ESE,123,3.5,5.2,76,0.00,,,0.01,proprietary,2013-01-10 23:39:00,
2013-01-10 18:44:00,34.7,28.1,29.32,ESE,122,4.2,6.7,76,0.00,,,0.01,proprietary,2013-01-10 23:44:00,
2013-01-10 18:49:00,34.7,28.1,29.32,ESE,123,3.7,6.4,76,0.00,,,0.01,proprietary,2013-01-10 23:49:00,
2013-01-10 18:54:00,34.7,28.1,29.32,ESE,119,4.1,6.9,76,0.00,,,0.01,proprietary,2013-01-10 23:54:00,
2013-01-10 18:59:00,34.6,28.1,29.32,SE,130,2.9,4.4,76,0.00,,,0.01,proprietary,2013-01-10 23:59:00,
2013-01-10 19:04:00,34.6,28.1,29.32,SE,129,2.8,5.4,76,0.00,,,0.01,proprietary,2013-01-11 00:04:00,
2013-01-10 19:09:00,34.6,28.1,29.32,SE,132,5.4,8.0,76,0.00,,,0.01,proprietary,2013-01-11 00:09:00,
2013-01-10 19:14:00,34.6,28.1,29.32,SE,135,4.9,7.5,76,0.00,,,0.01,proprietary,2013-01-11 00:14:00,
2013-01-10 19:19:00,34.5,28.1,29.32,SE,138,4.4,6.2,77,0.00,,,0.01,proprietary,2013-01-11 00:19:00,
2013-01-10 19:24:00,34.6,28.0,29.31,SE,124,3.7,6.9,76,0.00,,,0.01,proprietary,2013-01-11 00:24:00,
2013-01-10 19:29:00,34.5,28.1,29.31,ESE,115,4.2,6.6,77,0.00,,,0.01,proprietary,2013-01-11 00:29:00,
2013-01-10 19:34:00,34.5,28.1,29.31,ESE,123,6.5,10.5,77,0.00,,,0.01,proprietary,2013-01-11 00:34:00,
2013-01-10 19:39:00,34.5,28.1,29.31,ESE,120,5.7,9.3,77,0.00,,,0.01,proprietary,2013-01-11 00:39:00,
2013-01-10 19:44:00,34.5,28.1,29.30,ESE,106,3.8,5.8,77,0.00,,,0.01,proprietary,2013-01-11 00:44:00,
2013-01-10 19:49:00,34.6,28.1,29.30,SE,140,5.1,8.2,76,0.00,,,0.01,proprietary,2013-01-11 00:49:00,
2013-01-10 19:54:00,34.6,28.1,29.30,SE,127,2.8,4.1,76,0.00,,,0.01,proprietary,2013-01-11 00:54:00,
2013-01-10 19:59:00,34.7,28.1,29.30,East,97,5.2,9.8,76,0.00,,,0.01,proprietary,2013-01-11 00:59:00,
2013-01-10 20:04:00,34.8,28.1,29.30,SE,127,5.1,9.8,76,0.00,,,0.01,proprietary,2013-01-11 01:04:00,
2013-01-10 20:09:00,34.9,28.1,29.30,ESE,114,4.0,6.1,76,0.00,,,0.01,proprietary,2013-01-11 01:09:00,
2013-01-10 20:14:00,34.9,28.2,29.30,ESE,110,4.5,7.4,76,0.00,,,0.01,proprietary,2013-01-11 01:14:00,
2013-01-10 20:19:00,34.8,28.4,29.30,SE,124,4.5,6.1,77,0.00,,,0.01,proprietary,2013-01-11 01:19:00,
2013-01-10 20:24:00,34.8,28.4,29.29,ESE,115,3.5,4.9,77,0.00,,,0.01,proprietary,2013-01-11 01:24:00,
2013-01-10 20:29:00,34.9,28.4,29.29,SE,138,6.6,8.3,77,0.00,,,0.01,proprietary,2013-01-11 01:29:00,
2013-01-10 20:34:00,35.0,28.5,29.29,SE,130,2.9,3.9,76,0.00,,,0.01,proprietary,2013-01-11 01:34:00,
2013-01-10 20:39:00,34.9,28.9,29.28,ESE,117,2.5,4.2,78,0.00,,,0.01,proprietary,2013-01-11 01:39:00,
2013-01-10 20:44:00,34.6,29.2,29.28,ESE,111,2.9,4.4,80,0.00,,,0.01,proprietary,2013-01-11 01:44:00,
2013-01-10 20:49:00,34.3,29.5,29.28,East,92,1.7,2.8,82,0.01,,,0.02,proprietary,2013-01-11 01:49:00,
2013-01-10 20:54:00,34.2,29.7,29.28,SE,124,3.6,4.5,83,0.02,,,0.03,proprietary,2013-01-11 01:54:00,
2013-01-10 20:59:00,34.1,29.8,29.28,SE,129,5.2,8.0,83,0.02,,,0.03,proprietary,2013-01-11 01:59:00,
2013-01-10 21:04:00,34.0,30.0,29.28,ESE,108,4.3,5.3,85,0.03,,,0.04,proprietary,2013-01-11 02:04:00,
2013-01-10 21:09:00,33.9,30.1,29.27,ENE,78,2.7,4.4,85,0.03,,,0.04,proprietary,2013-01-11 02:09:00,
2013-01-10 21:14:00,33.9,30.3,29.26,East,100,4.5,6.0,86,0.04,,,0.05,proprietary,2013-01-11 02:14:00,
2013-01-10 21:20:00,33.8,30.5,29.25,ESE,121,3.2,5.3,87,0.05,,,0.06,proprietary,2013-01-11 02:20:00,
2013-01-10 21:25:00,33.8,30.6,29.25,East,94,2.0,3.2,87,0.07,,,0.08,proprietary,2013-01-11 02:25:00,
2013-01-10 21:30:00,33.7,30.7,29.25,East,96,5.2,6.7,88,0.07,,,0.08,proprietary,2013-01-11 02:30:00,
2013-01-10 21:35:00,33.7,30.8,29.24,East,99,4.1,5.4,89,0.07,,,0.08,proprietary,2013-01-11 02:35:00,
2013-01-10 21:40:00,33.6,30.9,29.24,East,95,4.1,6.8,89,0.08,,,0.09,proprietary,2013-01-11 02:40:00,
2013-01-10 21:45:00,33.6,31.0,29.23,ESE,118,3.7,5.1,89,0.07,,,0.09,proprietary,2013-01-11 02:45:00,
2013-01-10 21:51:00,33.7,31.0,29.23,ESE,105,4.5,5.6,89,0.06,,,0.09,proprietary,2013-01-11 02:51:00,
2013-01-10 21:56:00,33.7,31.1,29.23,ESE,105,5.0,7.0,89,0.06,,,0.09,proprietary,2013-01-11 02:56:00,
2013-01-10 22:01:00,33.8,31.1,29.23,ESE,117,3.3,5.0,89,0.06,,,0.09,proprietary,2013-01-11 03:01:00,
2013-01-10 22:06:00,33.9,31.1,29.23,SE,129,4.0,6.0,89,0.05,,,0.09,proprietary,2013-01-11 03:06:00,
2013-01-10 22:11:00,34.0,31.0,29.22,ESE,112,3.0,5.9,88,0.05,,,0.09,proprietary,2013-01-11 03:11:00,
2013-01-10 22:16:00,34.2,31.0,29.22,ESE,119,3.4,4.9,88,0.04,,,0.09,proprietary,2013-01-11 03:16:00,
2013-01-10 22:21:00,34.2,31.0,29.22,East,91,4.1,6.3,87,0.03,,,0.09,proprietary,2013-01-11 03:21:00,
2013-01-10 22:26:00,34.3,31.0,29.21,East,100,2.8,6.2,87,0.01,,,0.09,proprietary,2013-01-11 03:26:00,
2013-01-10 22:31:00,34.3,30.9,29.20,East,99,4.5,8.2,87,0.01,,,0.09,proprietary,2013-01-11 03:31:00,
2013-01-10 22:36:00,34.4,30.9,29.20,ESE,115,4.1,5.4,86,0.01,,,0.09,proprietary,2013-01-11 03:36:00,
2013-01-10 22:41:00,34.4,30.8,29.20,East,101,3.5,4.9,86,0.00,,,0.09,proprietary,2013-01-11 03:41:00,
2013-01-10 22:46:00,34.5,30.8,29.19,East,98,5.3,7.3,86,0.00,,,0.09,proprietary,2013-01-11 03:46:00,
2013-01-10 22:51:00,34.6,30.8,29.19,ESE,102,4.1,5.9,85,0.00,,,0.09,proprietary,2013-01-11 03:51:00,
2013-01-10 22:56:00,34.7,30.7,29.18,ESE,116,3.7,7.2,85,0.00,,,0.09,proprietary,2013-01-11 03:56:00,
2013-01-10 23:01:00,34.7,30.6,29.18,East,100,4.2,6.9,84,0.00,,,0.09,proprietary,2013-01-11 04:01:00,
2013-01-10 23:07:00,34.7,30.5,29.17,East,99,4.5,6.0,84,0.00,,,0.09,proprietary,2013-01-11 04:07:00,
2013-01-10 23:12:00,34.8,30.5,29.17,ESE,112,4.4,6.1,84,0.00,,,0.09,proprietary,2013-01-11 04:12:00,
2013-01-10 23:17:00,34.8,30.5,29.17,SE,128,7.5,11.3,84,0.00,,,0.09,proprietary,2013-01-11 04:17:00,
2013-01-10 23:22:00,34.7,30.5,29.17,ESE,121,5.6,8.8,84,0.00,,,0.09,proprietary,2013-01-11 04:22:00,
2013-01-10 23:27:00,34.6,30.7,29.17,ESE,121,4.6,8.7,85,0.00,,,0.09,proprietary,2013-01-11 04:27:00,
2013-01-10 23:32:00,34.4,30.8,29.16,East,94,3.5,7.2,86,0.00,,,0.09,proprietary,2013-01-11 04:32:00,
2013-01-10 23:37:00,34.3,30.9,29.16,ESE,112,4.3,6.3,87,0.01,,,0.10,proprietary,2013-01-11 04:37:00,
2013-01-10 23:42:00,34.2,31.0,29.15,ESE,104,5.1,9.2,87,0.01,,,0.10,proprietary,2013-01-11 04:42:00,
2013-01-10 23:47:00,34.2,31.1,29.15,ESE,104,5.5,8.0,88,0.01,,,0.10,proprietary,2013-01-11 04:47:00,
2013-01-10 23:52:00,34.2,31.2,29.14,ESE,114,6.2,9.3,88,0.01,,,0.10,proprietary,2013-01-11 04:52:00,
2013-01-10 23:57:00,34.2,31.2,29.14,ESE,103,3.0,5.1,88,0.01,,,0.10,proprietary,2013-01-11 04:57:00,